createdAt,value
2023-03-18T00:00:10.345Z,9.84
2023-03-18T00:05:15.031Z,9.83
2023-03-18T00:10:19.083Z,9.87
2023-03-18T00:15:22.145Z,9.85
2023-03-18T00:20:38.899Z,9.93
2023-03-18T00:25:43.240Z,10.01
2023-03-18T00:30:46.652Z,9.90
2023-03-18T00:35:50.150Z,9.88
2023-03-18T00:40:54.062Z,9.75
2023-03-18T00:45:59.431Z,9.63
2023-03-18T00:51:02.446Z,9.66
2023-03-18T00:56:06.220Z,9.49
2023-03-18T01:01:10.074Z,9.55
2023-03-18T01:06:15.994Z,9.70
2023-03-18T01:11:19.431Z,9.49
2023-03-18T01:16:24.037Z,9.59
2023-03-18T01:21:27.276Z,9.54
2023-03-18T01:26:34.050Z,9.61
2023-03-18T01:31:38.159Z,9.56
2023-03-18T01:36:50.351Z,9.35
2023-03-18T01:41:55.263Z,9.31
2023-03-18T01:47:05.150Z,9.13
2023-03-18T01:52:16.558Z,9.25
2023-03-18T01:57:21.766Z,9.12
2023-03-18T02:02:26.575Z,9.14
2023-03-18T02:07:32.973Z,9.12
2023-03-18T02:12:39.847Z,9.11
2023-03-18T02:17:54.009Z,9.13
2023-03-18T02:23:18.175Z,8.96
2023-03-18T02:28:26.493Z,9.16
2023-03-18T02:33:35.524Z,8.91
2023-03-18T02:38:43.554Z,8.72
2023-03-18T02:43:52.528Z,8.83
2023-03-18T02:48:57.793Z,8.83
2023-03-18T02:54:11.287Z,8.61
2023-03-18T02:59:14.688Z,8.56
2023-03-18T03:04:19.169Z,8.39
2023-03-18T03:09:23.094Z,8.51
2023-03-18T03:14:26.806Z,8.47
2023-03-18T03:19:34.682Z,8.21
2023-03-18T03:24:39.346Z,8.13
2023-03-18T03:29:42.460Z,8.17
2023-03-18T03:34:45.502Z,8.10
2023-03-18T03:39:49.309Z,8.13
2023-03-18T03:44:52.769Z,8.14
2023-03-18T03:49:56.648Z,8.10
2023-03-18T03:55:01.022Z,8.04
2023-03-18T04:00:08.627Z,8.19
2023-03-18T04:05:19.442Z,8.12
2023-03-18T04:10:23.113Z,8.26
2023-03-18T04:15:26.743Z,8.32
2023-03-18T04:20:30.202Z,8.60
2023-03-18T04:25:36.598Z,8.63
2023-03-18T04:30:40.453Z,8.76
2023-03-18T04:35:49.305Z,8.85
2023-03-18T04:40:54.462Z,8.86
2023-03-18T04:45:59.008Z,9.08
2023-03-18T04:51:02.847Z,9.07
2023-03-18T04:56:09.130Z,8.95
2023-03-18T05:01:20.634Z,9.17
2023-03-18T05:06:27.215Z,9.17
2023-03-18T05:11:33.993Z,9.50
2023-03-18T05:16:46.234Z,9.46
2023-03-18T05:21:50.057Z,9.57
2023-03-18T05:26:55.794Z,9.69
2023-03-18T05:32:04.688Z,10.20
2023-03-18T05:37:10.465Z,10.17
2023-03-18T05:42:17.986Z,9.88
2023-03-18T05:47:24.462Z,9.95
2023-03-18T05:52:39.286Z,10.08
2023-03-18T05:57:48.999Z,10.25
2023-03-18T06:02:54.206Z,10.26
2023-03-18T06:07:57.883Z,10.05
2023-03-18T06:13:01.473Z,9.85
2023-03-18T06:18:05.206Z,10.16
2023-03-18T06:23:09.349Z,10.17
2023-03-18T06:28:13.778Z,10.17
2023-03-18T06:33:18.673Z,10.40
2023-03-18T06:38:22.535Z,10.91
2023-03-18T06:43:29.944Z,10.60
2023-03-18T06:48:34.599Z,10.92
2023-03-18T06:53:37.737Z,10.89
2023-03-18T06:58:41.191Z,11.00
2023-03-18T07:03:46.024Z,10.87
2023-03-18T07:08:50.071Z,10.94
2023-03-18T07:13:53.501Z,11.34
2023-03-18T07:19:07.701Z,11.65
2023-03-18T07:24:14.573Z,11.91
2023-03-18T07:29:18.371Z,11.99
2023-03-18T07:34:21.807Z,12.60
2023-03-18T07:39:24.896Z,12.88
2023-03-18T07:44:28.041Z,12.87
2023-03-18T07:49:32.168Z,13.02
2023-03-18T07:54:35.913Z,13.71
2023-03-18T07:59:39.316Z,13.51
2023-03-18T08:04:44.361Z,13.41
2023-03-18T08:09:47.318Z,13.95
2023-03-18T08:14:50.322Z,13.70
2023-03-18T08:19:53.303Z,13.78
2023-03-18T08:24:58.376Z,13.61
2023-03-18T08:30:03.677Z,13.80
2023-03-18T08:35:07.671Z,13.65
2023-03-18T08:40:12.079Z,13.74
2023-03-18T08:45:16.411Z,13.88
2023-03-18T08:50:19.941Z,13.90
2023-03-18T08:55:23.527Z,13.85
2023-03-18T09:00:27.466Z,14.26
2023-03-18T09:05:31.696Z,14.12
2023-03-18T09:10:35.977Z,14.50
2023-03-18T09:15:39.295Z,15.24
2023-03-18T09:20:42.957Z,15.06
2023-03-18T09:25:47.237Z,15.60
2023-03-18T09:30:51.532Z,15.74
2023-03-18T09:35:55.063Z,15.83
2023-03-18T09:41:17.917Z,15.85
2023-03-18T09:46:27.022Z,15.76
2023-03-18T09:51:38.454Z,15.75
2023-03-18T09:56:43.070Z,15.87
2023-03-18T10:01:49.625Z,15.61
2023-03-18T10:07:00.455Z,15.76
2023-03-18T10:12:12.786Z,16.33
2023-03-18T10:17:59.640Z,16.11
2023-03-18T10:23:11.477Z,16.19
2023-03-18T10:28:32.732Z,16.04
2023-03-18T10:33:49.203Z,15.62
2023-03-18T10:38:54.733Z,15.41
2023-03-18T10:43:58.158Z,15.21
2023-03-18T10:49:15.020Z,15.36
2023-03-18T10:54:41.350Z,15.41
2023-03-18T10:59:45.687Z,15.62
2023-03-18T11:04:55.808Z,15.55
2023-03-18T11:10:24.208Z,15.65
2023-03-18T11:15:27.368Z,15.26
2023-03-18T11:20:43.360Z,14.92
2023-03-18T11:25:49.756Z,14.68
2023-03-18T11:30:57.730Z,14.28
2023-03-18T11:36:09.265Z,14.28
2023-03-18T11:41:17.159Z,14.27
2023-03-18T11:46:24.579Z,14.01
2023-03-18T11:51:36.437Z,13.88
2023-03-18T11:56:47.998Z,13.89
2023-03-18T12:01:59.887Z,14.12
2023-03-18T12:07:35.227Z,14.07
2023-03-18T12:12:59.908Z,14.08
2023-03-18T12:18:42.345Z,13.82
2023-03-18T12:24:01.009Z,13.69
2023-03-18T12:29:22.583Z,13.16
2023-03-18T12:34:25.436Z,12.84
2023-03-18T12:40:01.133Z,12.79
2023-03-18T12:45:13.848Z,12.57
2023-03-18T12:50:20.989Z,12.46
2023-03-18T12:55:29.543Z,12.36
2023-03-18T13:00:35.242Z,12.38
2023-03-18T13:05:44.155Z,12.28
2023-03-18T13:10:52.963Z,12.05
2023-03-18T13:15:56.217Z,12.04
2023-03-18T13:21:00.818Z,11.81
2023-03-18T13:26:47.888Z,11.84
2023-03-18T13:32:09.074Z,11.80
2023-03-18T13:37:28.106Z,11.71
2023-03-18T13:42:36.362Z,11.43
2023-03-18T13:47:41.307Z,11.52
2023-03-18T13:52:46.366Z,11.60
2023-03-18T13:57:57.833Z,11.51
2023-03-18T14:03:19.761Z,11.37
2023-03-18T14:08:44.320Z,11.15
2023-03-18T14:13:54.660Z,10.90
2023-03-18T14:19:22.340Z,10.61
2023-03-18T14:24:27.108Z,10.24
2023-03-18T14:29:50.636Z,10.32
2023-03-18T14:34:57.917Z,9.97
2023-03-18T14:40:21.667Z,9.92
2023-03-18T14:45:36.436Z,9.99
2023-03-18T14:50:47.480Z,9.84
2023-03-18T14:55:56.889Z,9.63
2023-03-18T15:01:12.562Z,9.51
2023-03-18T15:06:25.672Z,9.27
2023-03-18T15:11:30.451Z,9.19
2023-03-18T15:16:33.623Z,8.98
2023-03-18T15:21:37.844Z,8.83
2023-03-18T15:26:42.734Z,8.45
2023-03-18T15:31:46.279Z,8.11
2023-03-18T15:37:01.866Z,8.02
2023-03-18T15:42:15.858Z,7.73
2023-03-18T15:47:22.365Z,7.61
2023-03-18T15:52:33.721Z,7.57
2023-03-18T15:57:38.454Z,7.49
2023-03-18T16:02:42.117Z,7.30
2023-03-18T16:07:45.513Z,7.31
2023-03-18T16:13:00.734Z,7.19
2023-03-18T16:18:03.866Z,7.18
2023-03-18T16:23:06.896Z,7.03
2023-03-18T16:28:18.266Z,7.12
2023-03-18T16:33:22.908Z,7.03
2023-03-18T16:38:27.086Z,6.87
2023-03-18T16:43:31.937Z,6.78
2023-03-18T16:48:35.008Z,6.56
2023-03-18T16:53:38.250Z,6.44
2023-03-18T16:58:41.280Z,6.25
2023-03-18T17:03:44.591Z,6.16
2023-03-18T17:08:47.621Z,5.92
2023-03-18T17:13:50.883Z,5.76
2023-03-18T17:18:53.964Z,5.86
2023-03-18T17:23:57.027Z,5.78
2023-03-18T17:29:00.268Z,5.72
2023-03-18T17:34:03.199Z,5.74
2023-03-18T17:39:06.375Z,6.01
2023-03-18T17:44:30.403Z,6.03
2023-03-18T17:49:33.598Z,6.24
2023-03-18T17:54:36.811Z,6.28
2023-03-18T17:59:39.849Z,6.51
2023-03-18T18:04:43.635Z,6.68
2023-03-18T18:09:47.274Z,6.72
2023-03-18T18:14:50.874Z,6.74
2023-03-18T18:19:54.934Z,6.75
2023-03-18T18:24:58.256Z,6.70
2023-03-18T18:30:01.252Z,6.77
2023-03-18T18:35:04.570Z,6.57
2023-03-18T18:40:08.234Z,6.59
2023-03-18T18:45:18.338Z,6.52
2023-03-18T18:50:26.818Z,6.41
2023-03-18T18:55:29.964Z,6.44
2023-03-18T19:00:33.764Z,6.43
2023-03-18T19:05:36.985Z,6.31
2023-03-18T19:10:41.276Z,6.33
2023-03-18T19:15:47.135Z,6.24
2023-03-18T19:20:51.295Z,6.15
2023-03-18T19:25:55.363Z,6.04
2023-03-18T19:30:59.154Z,6.01
2023-03-18T19:36:06.376Z,6.13
2023-03-18T19:41:09.535Z,6.07
2023-03-18T19:46:18.952Z,5.93
2023-03-18T19:51:22.023Z,5.97
2023-03-18T19:56:27.620Z,5.74
2023-03-18T20:01:30.652Z,5.65
2023-03-18T20:06:33.769Z,5.66
2023-03-18T20:11:36.811Z,5.81
2023-03-18T20:16:39.884Z,5.71
2023-03-18T20:21:44.022Z,5.73
2023-03-18T20:26:47.212Z,5.70
2023-03-18T20:31:50.270Z,5.65
2023-03-18T20:36:53.314Z,5.62
2023-03-18T20:41:56.357Z,5.50
2023-03-18T20:46:59.328Z,5.44
2023-03-18T20:52:02.931Z,5.41
2023-03-18T20:57:06.376Z,5.44
2023-03-18T21:02:31.709Z,5.39
2023-03-18T21:07:34.657Z,5.35
2023-03-18T21:12:37.628Z,5.15
2023-03-18T21:17:40.822Z,5.20
2023-03-18T21:22:44.660Z,5.21
2023-03-18T21:27:47.768Z,5.20
2023-03-18T21:32:51.258Z,5.12
2023-03-18T21:37:54.335Z,5.01
2023-03-18T21:42:57.485Z,4.98
2023-03-18T21:48:00.587Z,4.90
2023-03-18T21:53:03.570Z,5.10
2023-03-18T21:58:06.949Z,5.04
2023-03-18T22:03:18.707Z,4.96
2023-03-18T22:08:23.079Z,4.94
2023-03-18T22:13:27.212Z,4.75
2023-03-18T22:18:30.152Z,4.84
2023-03-18T22:23:36.095Z,4.82
2023-03-18T22:28:39.162Z,4.84
2023-03-18T22:33:42.241Z,4.75
2023-03-18T22:38:46.489Z,4.55
2023-03-18T22:43:50.667Z,4.63
2023-03-18T22:48:53.655Z,4.51
2023-03-18T22:53:57.109Z,4.49
2023-03-18T22:59:00.365Z,4.49
2023-03-18T23:04:04.925Z,4.35
2023-03-18T23:09:07.955Z,4.27
2023-03-18T23:14:12.197Z,4.29
2023-03-18T23:19:15.174Z,4.32
2023-03-18T23:24:18.192Z,4.26
2023-03-18T23:29:21.179Z,4.29
2023-03-18T23:34:24.431Z,4.18
2023-03-18T23:39:27.658Z,4.26
2023-03-18T23:44:30.647Z,4.38
2023-03-18T23:49:34.399Z,4.05
2023-03-18T23:54:39.528Z,4.20
2023-03-18T23:59:42.592Z,4.27
